sensor_id;sensor_type;location;lat;lon;timestamp;P1;durP1;ratioP1;P2;durP2;ratioP2
21032;SDS011;10675;47.976;7.824;2022-09-25T00:02:03;1.77;;;1.57;;
21032;SDS011;10675;47.976;7.824;2022-09-25T00:04:29;3.50;;;1.70;;
21032;SDS011;10675;47.976;7.824;2022-09-25T00:06:55;4.97;;;2.07;;
21032;SDS011;10675;47.976;7.824;2022-09-25T00:09:21;2.03;;;1.70;;
21032;SDS011;10675;47.976;7.824;2022-09-25T00:11:47;1.87;;;1.50;;
21032;SDS011;10675;47.976;7.824;2022-09-25T00:14:13;3.93;;;1.50;;
21032;SDS011;10675;47.976;7.824;2022-09-25T00:16:39;1.63;;;1.50;;
21032;SDS011;10675;47.976;7.824;2022-09-25T00:19:04;3.00;;;1.90;;
21032;SDS011;10675;47.976;7.824;2022-09-25T00:21:48;2.87;;;2.00;;
21032;SDS011;10675;47.976;7.824;2022-09-25T00:24:16;3.43;;;1.97;;
21032;SDS011;10675;47.976;7.824;2022-09-25T00:26:42;1.70;;;1.60;;
21032;SDS011;10675;47.976;7.824;2022-09-25T00:29:08;2.23;;;1.90;;
21032;SDS011;10675;47.976;7.824;2022-09-25T00:31:41;2.07;;;1.87;;
21032;SDS011;10675;47.976;7.824;2022-09-25T00:34:07;1.90;;;1.60;;
21032;SDS011;10675;47.976;7.824;2022-09-25T00:36:34;1.70;;;1.57;;
21032;SDS011;10675;47.976;7.824;2022-09-25T00:39:00;1.70;;;1.60;;
21032;SDS011;10675;47.976;7.824;2022-09-25T00:41:26;1.57;;;1.47;;
21032;SDS011;10675;47.976;7.824;2022-09-25T00:43:54;2.50;;;1.80;;
21032;SDS011;10675;47.976;7.824;2022-09-25T00:46:21;2.43;;;1.90;;
21032;SDS011;10675;47.976;7.824;2022-09-25T00:48:54;2.00;;;1.80;;
21032;SDS011;10675;47.976;7.824;2022-09-25T00:51:33;4.23;;;1.93;;
21032;SDS011;10675;47.976;7.824;2022-09-25T00:54:13;2.13;;;1.93;;
21032;SDS011;10675;47.976;7.824;2022-09-25T00:56:44;1.90;;;1.70;;
21032;SDS011;10675;47.976;7.824;2022-09-25T00:59:13;2.20;;;2.00;;
21032;SDS011;10675;47.976;7.824;2022-09-25T01:01:45;2.70;;;2.37;;
21032;SDS011;10675;47.976;7.824;2022-09-25T01:04:11;2.07;;;1.87;;
21032;SDS011;10675;47.976;7.824;2022-09-25T01:06:37;3.23;;;2.13;;
21032;SDS011;10675;47.976;7.824;2022-09-25T01:09:03;3.17;;;2.07;;
21032;SDS011;10675;47.976;7.824;2022-09-25T01:11:29;1.83;;;1.60;;
21032;SDS011;10675;47.976;7.824;2022-09-25T01:13:55;3.80;;;1.90;;
21032;SDS011;10675;47.976;7.824;2022-09-25T01:18:52;1.63;;;1.53;;
21032;SDS011;10675;47.976;7.824;2022-09-25T01:21:49;1.83;;;1.70;;
21032;SDS011;10675;47.976;7.824;2022-09-25T01:24:36;2.30;;;1.87;;
21032;SDS011;10675;47.976;7.824;2022-09-25T01:32:28;1.60;;;1.50;;
21032;SDS011;10675;47.976;7.824;2022-09-25T01:35:00;1.90;;;1.60;;
21032;SDS011;10675;47.976;7.824;2022-09-25T01:42:39;2.10;;;1.90;;
21032;SDS011;10675;47.976;7.824;2022-09-25T01:45:21;2.70;;;1.93;;
21032;SDS011;10675;47.976;7.824;2022-09-25T01:50:26;2.07;;;1.77;;
21032;SDS011;10675;47.976;7.824;2022-09-25T01:52:58;2.77;;;1.70;;
21032;SDS011;10675;47.976;7.824;2022-09-25T01:55:39;2.10;;;1.40;;
21032;SDS011;10675;47.976;7.824;2022-09-25T02:00:40;1.87;;;1.50;;
21032;SDS011;10675;47.976;7.824;2022-09-25T02:03:15;2.40;;;1.80;;
21032;SDS011;10675;47.976;7.824;2022-09-25T02:05:47;1.80;;;1.60;;
21032;SDS011;10675;47.976;7.824;2022-09-25T02:08:21;1.90;;;1.80;;
21032;SDS011;10675;47.976;7.824;2022-09-25T02:10:54;2.47;;;1.90;;
21032;SDS011;10675;47.976;7.824;2022-09-25T02:13:23;1.97;;;1.70;;
21032;SDS011;10675;47.976;7.824;2022-09-25T02:16:08;1.77;;;1.63;;
21032;SDS011;10675;47.976;7.824;2022-09-25T02:18:45;3.17;;;1.80;;
21032;SDS011;10675;47.976;7.824;2022-09-25T02:24:16;1.50;;;1.30;;
21032;SDS011;10675;47.976;7.824;2022-09-25T02:26:45;1.63;;;1.53;;
21032;SDS011;10675;47.976;7.824;2022-09-25T02:29:12;2.00;;;1.60;;
21032;SDS011;10675;47.976;7.824;2022-09-25T02:31:41;2.10;;;1.90;;
21032;SDS011;10675;47.976;7.824;2022-09-25T02:34:22;1.90;;;1.70;;
21032;SDS011;10675;47.976;7.824;2022-09-25T02:36:47;1.80;;;1.70;;
21032;SDS011;10675;47.976;7.824;2022-09-25T02:39:14;2.23;;;1.80;;
21032;SDS011;10675;47.976;7.824;2022-09-25T02:41:59;3.27;;;1.93;;
21032;SDS011;10675;47.976;7.824;2022-09-25T02:45:03;4.37;;;1.80;;
21032;SDS011;10675;47.976;7.824;2022-09-25T02:53:46;3.50;;;1.80;;
21032;SDS011;10675;47.976;7.824;2022-09-25T02:56:39;1.77;;;1.57;;
21032;SDS011;10675;47.976;7.824;2022-09-25T02:59:13;2.23;;;1.97;;
21032;SDS011;10675;47.976;7.824;2022-09-25T03:01:47;1.87;;;1.77;;
21032;SDS011;10675;47.976;7.824;2022-09-25T03:04:14;2.40;;;2.20;;
21032;SDS011;10675;47.976;7.824;2022-09-25T03:06:41;1.97;;;1.67;;
21032;SDS011;10675;47.976;7.824;2022-09-25T03:09:08;2.17;;;1.77;;
21032;SDS011;10675;47.976;7.824;2022-09-25T03:11:35;2.37;;;1.70;;
21032;SDS011;10675;47.976;7.824;2022-09-25T03:14:05;2.03;;;1.70;;
21032;SDS011;10675;47.976;7.824;2022-09-25T03:19:20;2.93;;;1.77;;
21032;SDS011;10675;47.976;7.824;2022-09-25T03:21:47;1.70;;;1.60;;
21032;SDS011;10675;47.976;7.824;2022-09-25T03:24:13;2.10;;;1.90;;
21032;SDS011;10675;47.976;7.824;2022-09-25T03:26:39;1.73;;;1.60;;
21032;SDS011;10675;47.976;7.824;2022-09-25T03:29:05;1.50;;;1.40;;
21032;SDS011;10675;47.976;7.824;2022-09-25T03:31:31;2.17;;;1.60;;
21032;SDS011;10675;47.976;7.824;2022-09-25T03:33:58;1.73;;;1.63;;
21032;SDS011;10675;47.976;7.824;2022-09-25T03:36:24;2.10;;;1.80;;
21032;SDS011;10675;47.976;7.824;2022-09-25T03:38:53;2.00;;;1.80;;
21032;SDS011;10675;47.976;7.824;2022-09-25T03:41:24;3.20;;;1.70;;
21032;SDS011;10675;47.976;7.824;2022-09-25T03:43:52;2.30;;;1.77;;
21032;SDS011;10675;47.976;7.824;2022-09-25T03:46:19;2.30;;;1.83;;
21032;SDS011;10675;47.976;7.824;2022-09-25T03:48:55;1.93;;;1.70;;
21032;SDS011;10675;47.976;7.824;2022-09-25T03:51:22;1.90;;;1.80;;
21032;SDS011;10675;47.976;7.824;2022-09-25T03:53:49;2.17;;;1.97;;
21032;SDS011;10675;47.976;7.824;2022-09-25T03:56:16;3.23;;;2.03;;
21032;SDS011;10675;47.976;7.824;2022-09-25T03:58:44;2.03;;;1.93;;
21032;SDS011;10675;47.976;7.824;2022-09-25T04:01:11;3.57;;;2.00;;
21032;SDS011;10675;47.976;7.824;2022-09-25T04:03:37;3.20;;;2.30;;
21032;SDS011;10675;47.976;7.824;2022-09-25T04:06:03;2.50;;;1.87;;
21032;SDS011;10675;47.976;7.824;2022-09-25T04:08:31;2.37;;;2.17;;
21032;SDS011;10675;47.976;7.824;2022-09-25T04:10:59;2.90;;;1.93;;
21032;SDS011;10675;47.976;7.824;2022-09-25T04:13:26;2.47;;;1.90;;
21032;SDS011;10675;47.976;7.824;2022-09-25T04:15:56;2.23;;;2.03;;
21032;SDS011;10675;47.976;7.824;2022-09-25T04:18:23;1.83;;;1.70;;
21032;SDS011;10675;47.976;7.824;2022-09-25T04:20:49;2.73;;;2.00;;
21032;SDS011;10675;47.976;7.824;2022-09-25T04:23:15;2.37;;;2.07;;
21032;SDS011;10675;47.976;7.824;2022-09-25T04:25:41;2.30;;;2.10;;
21032;SDS011;10675;47.976;7.824;2022-09-25T04:28:07;5.43;;;2.20;;
21032;SDS011;10675;47.976;7.824;2022-09-25T04:30:34;2.37;;;2.00;;
21032;SDS011;10675;47.976;7.824;2022-09-25T04:33:00;2.40;;;2.20;;
21032;SDS011;10675;47.976;7.824;2022-09-25T04:35:44;3.10;;;2.40;;
21032;SDS011;10675;47.976;7.824;2022-09-25T04:38:10;3.90;;;1.97;;
21032;SDS011;10675;47.976;7.824;2022-09-25T04:40:35;2.37;;;2.17;;
21032;SDS011;10675;47.976;7.824;2022-09-25T04:43:02;2.17;;;1.97;;
21032;SDS011;10675;47.976;7.824;2022-09-25T04:45:31;2.47;;;2.23;;
21032;SDS011;10675;47.976;7.824;2022-09-25T04:47:58;2.23;;;2.03;;
21032;SDS011;10675;47.976;7.824;2022-09-25T04:50:25;2.97;;;2.00;;
21032;SDS011;10675;47.976;7.824;2022-09-25T04:52:52;2.47;;;2.03;;
21032;SDS011;10675;47.976;7.824;2022-09-25T04:55:18;3.27;;;2.20;;
21032;SDS011;10675;47.976;7.824;2022-09-25T04:57:48;2.63;;;2.10;;
21032;SDS011;10675;47.976;7.824;2022-09-25T05:00:18;2.20;;;2.00;;
21032;SDS011;10675;47.976;7.824;2022-09-25T05:02:45;2.30;;;2.07;;
21032;SDS011;10675;47.976;7.824;2022-09-25T05:05:11;1.97;;;1.80;;
21032;SDS011;10675;47.976;7.824;2022-09-25T05:07:36;4.03;;;2.20;;
21032;SDS011;10675;47.976;7.824;2022-09-25T05:10:03;2.10;;;1.90;;
21032;SDS011;10675;47.976;7.824;2022-09-25T05:12:29;2.07;;;1.80;;
21032;SDS011;10675;47.976;7.824;2022-09-25T05:14:55;2.40;;;1.97;;
21032;SDS011;10675;47.976;7.824;2022-09-25T05:17:21;2.23;;;1.63;;
21032;SDS011;10675;47.976;7.824;2022-09-25T05:19:46;6.53;;;2.33;;
21032;SDS011;10675;47.976;7.824;2022-09-25T05:22:12;5.17;;;3.40;;
21032;SDS011;10675;47.976;7.824;2022-09-25T05:24:37;7.90;;;4.87;;
21032;SDS011;10675;47.976;7.824;2022-09-25T05:27:03;9.40;;;5.47;;
21032;SDS011;10675;47.976;7.824;2022-09-25T05:29:29;11.57;;;5.87;;
21032;SDS011;10675;47.976;7.824;2022-09-25T05:31:55;11.17;;;5.60;;
21032;SDS011;10675;47.976;7.824;2022-09-25T05:34:20;9.77;;;5.37;;
21032;SDS011;10675;47.976;7.824;2022-09-25T05:36:46;14.50;;;7.60;;
21032;SDS011;10675;47.976;7.824;2022-09-25T05:39:11;14.20;;;6.97;;
21032;SDS011;10675;47.976;7.824;2022-09-25T05:41:37;16.33;;;8.13;;
21032;SDS011;10675;47.976;7.824;2022-09-25T05:44:03;17.20;;;7.93;;
21032;SDS011;10675;47.976;7.824;2022-09-25T05:46:36;16.17;;;8.03;;
21032;SDS011;10675;47.976;7.824;2022-09-25T05:49:03;17.63;;;7.77;;
21032;SDS011;10675;47.976;7.824;2022-09-25T05:51:29;14.77;;;6.30;;
21032;SDS011;10675;47.976;7.824;2022-09-25T05:53:55;18.53;;;7.93;;
21032;SDS011;10675;47.976;7.824;2022-09-25T05:56:21;19.20;;;7.53;;
21032;SDS011;10675;47.976;7.824;2022-09-25T05:58:49;16.40;;;7.43;;
21032;SDS011;10675;47.976;7.824;2022-09-25T06:01:16;17.40;;;7.93;;
21032;SDS011;10675;47.976;7.824;2022-09-25T06:03:42;16.60;;;7.17;;
21032;SDS011;10675;47.976;7.824;2022-09-25T06:06:08;15.13;;;7.50;;
21032;SDS011;10675;47.976;7.824;2022-09-25T06:08:34;13.90;;;6.97;;
21032;SDS011;10675;47.976;7.824;2022-09-25T06:10:59;15.00;;;7.23;;
21032;SDS011;10675;47.976;7.824;2022-09-25T06:13:26;12.73;;;7.07;;
21032;SDS011;10675;47.976;7.824;2022-09-25T06:15:52;14.50;;;6.83;;
21032;SDS011;10675;47.976;7.824;2022-09-25T06:18:21;19.03;;;7.67;;
21032;SDS011;10675;47.976;7.824;2022-09-25T06:20:47;11.10;;;6.37;;
21032;SDS011;10675;47.976;7.824;2022-09-25T06:23:14;13.70;;;6.90;;
21032;SDS011;10675;47.976;7.824;2022-09-25T06:25:40;12.37;;;6.80;;
21032;SDS011;10675;47.976;7.824;2022-09-25T06:28:06;12.67;;;6.53;;
21032;SDS011;10675;47.976;7.824;2022-09-25T06:30:35;13.40;;;6.77;;
21032;SDS011;10675;47.976;7.824;2022-09-25T06:33:02;13.80;;;6.97;;
21032;SDS011;10675;47.976;7.824;2022-09-25T06:35:31;14.97;;;6.80;;
21032;SDS011;10675;47.976;7.824;2022-09-25T06:37:58;15.73;;;7.47;;
21032;SDS011;10675;47.976;7.824;2022-09-25T06:40:25;14.07;;;7.03;;
21032;SDS011;10675;47.976;7.824;2022-09-25T06:43:01;15.30;;;7.07;;
21032;SDS011;10675;47.976;7.824;2022-09-25T06:45:29;12.60;;;6.67;;
21032;SDS011;10675;47.976;7.824;2022-09-25T06:53:13;14.67;;;6.80;;
21032;SDS011;10675;47.976;7.824;2022-09-25T06:55:40;13.50;;;7.53;;
21032;SDS011;10675;47.976;7.824;2022-09-25T06:58:09;11.87;;;6.53;;
21032;SDS011;10675;47.976;7.824;2022-09-25T07:00:36;16.00;;;7.23;;
21032;SDS011;10675;47.976;7.824;2022-09-25T07:03:02;14.10;;;6.77;;
21032;SDS011;10675;47.976;7.824;2022-09-25T07:05:46;14.00;;;7.10;;
21032;SDS011;10675;47.976;7.824;2022-09-25T07:08:13;12.90;;;6.63;;
21032;SDS011;10675;47.976;7.824;2022-09-25T07:10:50;14.77;;;6.87;;
21032;SDS011;10675;47.976;7.824;2022-09-25T07:13:17;16.87;;;7.33;;
21032;SDS011;10675;47.976;7.824;2022-09-25T07:15:51;14.93;;;7.13;;
21032;SDS011;10675;47.976;7.824;2022-09-25T07:18:18;13.30;;;7.03;;
21032;SDS011;10675;47.976;7.824;2022-09-25T07:20:45;14.93;;;7.10;;
21032;SDS011;10675;47.976;7.824;2022-09-25T07:23:11;14.10;;;7.87;;
21032;SDS011;10675;47.976;7.824;2022-09-25T07:25:37;13.87;;;6.83;;
21032;SDS011;10675;47.976;7.824;2022-09-25T07:28:03;13.63;;;7.10;;
21032;SDS011;10675;47.976;7.824;2022-09-25T07:30:29;16.07;;;7.90;;
21032;SDS011;10675;47.976;7.824;2022-09-25T07:32:54;15.27;;;7.20;;
21032;SDS011;10675;47.976;7.824;2022-09-25T07:35:20;12.47;;;6.43;;
21032;SDS011;10675;47.976;7.824;2022-09-25T07:37:46;14.33;;;6.60;;
21032;SDS011;10675;47.976;7.824;2022-09-25T07:40:11;13.40;;;6.80;;
21032;SDS011;10675;47.976;7.824;2022-09-25T07:42:37;13.77;;;7.47;;
21032;SDS011;10675;47.976;7.824;2022-09-25T07:45:03;13.60;;;7.20;;
21032;SDS011;10675;47.976;7.824;2022-09-25T07:47:28;14.23;;;6.90;;
21032;SDS011;10675;47.976;7.824;2022-09-25T07:49:54;13.97;;;6.60;;
21032;SDS011;10675;47.976;7.824;2022-09-25T07:52:19;13.20;;;7.03;;
21032;SDS011;10675;47.976;7.824;2022-09-25T07:54:45;10.30;;;5.43;;
21032;SDS011;10675;47.976;7.824;2022-09-25T07:57:10;9.23;;;5.47;;
21032;SDS011;10675;47.976;7.824;2022-09-25T07:59:37;9.50;;;5.30;;
21032;SDS011;10675;47.976;7.824;2022-09-25T08:02:03;8.63;;;5.00;;
21032;SDS011;10675;47.976;7.824;2022-09-25T08:04:29;7.30;;;4.63;;
21032;SDS011;10675;47.976;7.824;2022-09-25T08:06:56;9.63;;;5.20;;
21032;SDS011;10675;47.976;7.824;2022-09-25T08:09:23;9.00;;;4.83;;
21032;SDS011;10675;47.976;7.824;2022-09-25T08:11:48;8.20;;;5.10;;
21032;SDS011;10675;47.976;7.824;2022-09-25T08:14:15;10.33;;;5.30;;
21032;SDS011;10675;47.976;7.824;2022-09-25T08:16:41;9.17;;;5.37;;
21032;SDS011;10675;47.976;7.824;2022-09-25T08:19:07;8.50;;;4.97;;
21032;SDS011;10675;47.976;7.824;2022-09-25T08:21:34;8.53;;;5.07;;
21032;SDS011;10675;47.976;7.824;2022-09-25T08:23:59;7.93;;;5.20;;
21032;SDS011;10675;47.976;7.824;2022-09-25T08:26:25;8.90;;;4.70;;
21032;SDS011;10675;47.976;7.824;2022-09-25T08:28:52;7.60;;;4.47;;
21032;SDS011;10675;47.976;7.824;2022-09-25T08:31:18;6.23;;;4.47;;
21032;SDS011;10675;47.976;7.824;2022-09-25T08:33:44;9.77;;;4.80;;
21032;SDS011;10675;47.976;7.824;2022-09-25T08:36:11;8.63;;;5.10;;
21032;SDS011;10675;47.976;7.824;2022-09-25T08:38:37;10.03;;;5.37;;
21032;SDS011;10675;47.976;7.824;2022-09-25T08:41:04;11.33;;;6.27;;
21032;SDS011;10675;47.976;7.824;2022-09-25T08:43:36;10.10;;;6.07;;
21032;SDS011;10675;47.976;7.824;2022-09-25T08:46:10;9.87;;;5.40;;
21032;SDS011;10675;47.976;7.824;2022-09-25T08:49:03;11.27;;;6.27;;
21032;SDS011;10675;47.976;7.824;2022-09-25T08:51:31;11.10;;;6.07;;
21032;SDS011;10675;47.976;7.824;2022-09-25T08:54:01;12.23;;;6.37;;
21032;SDS011;10675;47.976;7.824;2022-09-25T08:56:28;13.80;;;6.43;;
21032;SDS011;10675;47.976;7.824;2022-09-25T09:01:42;11.80;;;6.87;;
21032;SDS011;10675;47.976;7.824;2022-09-25T09:06:46;14.00;;;7.37;;
21032;SDS011;10675;47.976;7.824;2022-09-25T09:09:23;16.63;;;6.93;;
21032;SDS011;10675;47.976;7.824;2022-09-25T09:12:09;11.10;;;6.37;;
21032;SDS011;10675;47.976;7.824;2022-09-25T09:14:43;11.00;;;6.90;;
21032;SDS011;10675;47.976;7.824;2022-09-25T09:19:50;11.83;;;6.07;;
21032;SDS011;10675;47.976;7.824;2022-09-25T09:22:19;9.57;;;5.97;;
21032;SDS011;10675;47.976;7.824;2022-09-25T09:46:26;8.87;;;5.40;;
21032;SDS011;10675;47.976;7.824;2022-09-25T09:51:59;8.53;;;4.87;;
21032;SDS011;10675;47.976;7.824;2022-09-25T09:54:48;7.37;;;4.80;;
21032;SDS011;10675;47.976;7.824;2022-09-25T09:57:20;7.43;;;4.80;;
21032;SDS011;10675;47.976;7.824;2022-09-25T10:05:25;9.83;;;4.93;;
21032;SDS011;10675;47.976;7.824;2022-09-25T10:08:01;8.83;;;4.80;;
21032;SDS011;10675;47.976;7.824;2022-09-25T10:10:34;8.63;;;4.27;;
21032;SDS011;10675;47.976;7.824;2022-09-25T10:13:01;7.77;;;4.57;;
21032;SDS011;10675;47.976;7.824;2022-09-25T10:18:02;6.37;;;4.20;;
21032;SDS011;10675;47.976;7.824;2022-09-25T10:20:35;6.00;;;4.03;;
21032;SDS011;10675;47.976;7.824;2022-09-25T10:23:05;6.10;;;3.80;;
21032;SDS011;10675;47.976;7.824;2022-09-25T10:25:57;5.93;;;3.93;;
21032;SDS011;10675;47.976;7.824;2022-09-25T10:28:27;8.90;;;4.17;;
21032;SDS011;10675;47.976;7.824;2022-09-25T10:30:58;6.03;;;4.10;;
21032;SDS011;10675;47.976;7.824;2022-09-25T10:33:27;6.87;;;4.17;;
21032;SDS011;10675;47.976;7.824;2022-09-25T10:35:54;6.57;;;3.50;;
21032;SDS011;10675;47.976;7.824;2022-09-25T10:38:34;5.50;;;3.07;;
21032;SDS011;10675;47.976;7.824;2022-09-25T10:41:07;3.77;;;3.07;;
21032;SDS011;10675;47.976;7.824;2022-09-25T10:46:32;5.63;;;3.20;;
21032;SDS011;10675;47.976;7.824;2022-09-25T10:49:24;5.97;;;3.50;;
21032;SDS011;10675;47.976;7.824;2022-09-25T10:52:11;4.10;;;2.50;;
21032;SDS011;10675;47.976;7.824;2022-09-25T10:54:38;3.90;;;2.47;;
21032;SDS011;10675;47.976;7.824;2022-09-25T10:57:27;3.27;;;2.03;;
21032;SDS011;10675;47.976;7.824;2022-09-25T11:00:01;4.50;;;2.50;;
21032;SDS011;10675;47.976;7.824;2022-09-25T11:02:38;2.53;;;1.87;;
21032;SDS011;10675;47.976;7.824;2022-09-25T11:05:06;5.47;;;2.07;;
21032;SDS011;10675;47.976;7.824;2022-09-25T11:07:45;4.57;;;2.73;;
21032;SDS011;10675;47.976;7.824;2022-09-25T11:10:20;6.53;;;3.20;;
21032;SDS011;10675;47.976;7.824;2022-09-25T11:12:49;5.93;;;3.53;;
21032;SDS011;10675;47.976;7.824;2022-09-25T11:15:17;5.10;;;3.57;;
21032;SDS011;10675;47.976;7.824;2022-09-25T11:17:46;6.77;;;3.50;;
21032;SDS011;10675;47.976;7.824;2022-09-25T11:22:45;6.43;;;4.20;;
21032;SDS011;10675;47.976;7.824;2022-09-25T11:25:19;5.50;;;3.63;;
21032;SDS011;10675;47.976;7.824;2022-09-25T11:27:50;7.40;;;3.23;;
21032;SDS011;10675;47.976;7.824;2022-09-25T11:30:20;4.87;;;3.30;;
21032;SDS011;10675;47.976;7.824;2022-09-25T11:32:55;8.43;;;3.00;;
21032;SDS011;10675;47.976;7.824;2022-09-25T11:35:52;3.87;;;3.10;;
21032;SDS011;10675;47.976;7.824;2022-09-25T11:38:32;4.57;;;2.87;;
21032;SDS011;10675;47.976;7.824;2022-09-25T11:42:04;2.93;;;2.60;;
21032;SDS011;10675;47.976;7.824;2022-09-25T11:44:46;5.73;;;3.33;;
21032;SDS011;10675;47.976;7.824;2022-09-25T11:49:53;5.60;;;3.10;;
21032;SDS011;10675;47.976;7.824;2022-09-25T12:06:27;4.60;;;3.10;;
21032;SDS011;10675;47.976;7.824;2022-09-25T12:09:26;6.00;;;3.30;;
21032;SDS011;10675;47.976;7.824;2022-09-25T12:14:47;7.30;;;3.00;;
21032;SDS011;10675;47.976;7.824;2022-09-25T12:17:18;5.93;;;2.90;;
21032;SDS011;10675;47.976;7.824;2022-09-25T12:19:57;9.87;;;9.07;;
21032;SDS011;10675;47.976;7.824;2022-09-25T12:25:05;4.57;;;3.13;;
21032;SDS011;10675;47.976;7.824;2022-09-25T12:27:52;3.33;;;3.00;;
21032;SDS011;10675;47.976;7.824;2022-09-25T12:30:33;3.40;;;2.70;;
21032;SDS011;10675;47.976;7.824;2022-09-25T12:41:59;22.73;;;20.33;;
21032;SDS011;10675;47.976;7.824;2022-09-25T12:44:54;8.40;;;4.47;;
21032;SDS011;10675;47.976;7.824;2022-09-25T12:52:34;4.57;;;3.07;;
21032;SDS011;10675;47.976;7.824;2022-09-25T12:55:09;3.10;;;2.70;;
21032;SDS011;10675;47.976;7.824;2022-09-25T13:00:36;3.03;;;2.73;;
21032;SDS011;10675;47.976;7.824;2022-09-25T13:03:17;6.17;;;2.90;;
21032;SDS011;10675;47.976;7.824;2022-09-25T13:05:49;5.03;;;2.93;;
21032;SDS011;10675;47.976;7.824;2022-09-25T13:08:36;3.40;;;2.47;;
21032;SDS011;10675;47.976;7.824;2022-09-25T13:11:10;3.83;;;2.57;;
21032;SDS011;10675;47.976;7.824;2022-09-25T13:13:41;4.27;;;2.63;;
21032;SDS011;10675;47.976;7.824;2022-09-25T13:16:10;6.17;;;3.20;;
21032;SDS011;10675;47.976;7.824;2022-09-25T13:18:40;8.37;;;4.27;;
21032;SDS011;10675;47.976;7.824;2022-09-25T13:21:39;5.77;;;3.17;;
21032;SDS011;10675;47.976;7.824;2022-09-25T13:24:13;6.77;;;3.80;;
21032;SDS011;10675;47.976;7.824;2022-09-25T13:26:45;7.30;;;5.20;;
21032;SDS011;10675;47.976;7.824;2022-09-25T13:31:48;4.97;;;2.90;;
21032;SDS011;10675;47.976;7.824;2022-09-25T13:34:14;4.70;;;2.80;;
21032;SDS011;10675;47.976;7.824;2022-09-25T13:36:52;4.13;;;3.03;;
21032;SDS011;10675;47.976;7.824;2022-09-25T13:42:11;3.47;;;3.00;;
21032;SDS011;10675;47.976;7.824;2022-09-25T13:49:42;3.60;;;3.03;;
21032;SDS011;10675;47.976;7.824;2022-09-25T13:52:30;3.97;;;3.57;;
21032;SDS011;10675;47.976;7.824;2022-09-25T13:58:27;4.63;;;3.83;;
21032;SDS011;10675;47.976;7.824;2022-09-25T14:01:17;5.50;;;3.40;;
21032;SDS011;10675;47.976;7.824;2022-09-25T14:03:57;3.80;;;2.97;;
21032;SDS011;10675;47.976;7.824;2022-09-25T14:06:27;4.80;;;2.93;;
21032;SDS011;10675;47.976;7.824;2022-09-25T14:08:58;5.33;;;3.00;;
21032;SDS011;10675;47.976;7.824;2022-09-25T14:11:32;3.57;;;3.27;;
21032;SDS011;10675;47.976;7.824;2022-09-25T14:14:03;6.37;;;3.73;;
21032;SDS011;10675;47.976;7.824;2022-09-25T14:16:41;5.17;;;3.43;;
21032;SDS011;10675;47.976;7.824;2022-09-25T14:19:15;6.83;;;3.13;;
21032;SDS011;10675;47.976;7.824;2022-09-25T14:21:44;5.07;;;3.03;;
21032;SDS011;10675;47.976;7.824;2022-09-25T14:24:24;3.30;;;2.70;;
21032;SDS011;10675;47.976;7.824;2022-09-25T14:26:55;3.27;;;2.70;;
21032;SDS011;10675;47.976;7.824;2022-09-25T14:29:26;3.20;;;2.70;;
21032;SDS011;10675;47.976;7.824;2022-09-25T14:40:49;2.00;;;1.70;;
21032;SDS011;10675;47.976;7.824;2022-09-25T14:43:46;2.87;;;1.50;;
21032;SDS011;10675;47.976;7.824;2022-09-25T14:46:43;2.47;;;2.23;;
21032;SDS011;10675;47.976;7.824;2022-09-25T14:49:18;2.37;;;2.10;;
21032;SDS011;10675;47.976;7.824;2022-09-25T14:51:48;2.63;;;2.00;;
21032;SDS011;10675;47.976;7.824;2022-09-25T14:54:19;3.83;;;1.83;;
21032;SDS011;10675;47.976;7.824;2022-09-25T14:56:48;2.63;;;2.27;;
21032;SDS011;10675;47.976;7.824;2022-09-25T14:59:24;1.87;;;1.63;;
21032;SDS011;10675;47.976;7.824;2022-09-25T15:01:52;3.63;;;2.10;;
21032;SDS011;10675;47.976;7.824;2022-09-25T15:04:25;2.63;;;2.10;;
21032;SDS011;10675;47.976;7.824;2022-09-25T15:06:58;2.53;;;2.13;;
21032;SDS011;10675;47.976;7.824;2022-09-25T15:09:39;2.93;;;2.00;;
21032;SDS011;10675;47.976;7.824;2022-09-25T15:14:57;2.80;;;1.90;;
21032;SDS011;10675;47.976;7.824;2022-09-25T15:17:31;2.30;;;1.87;;
21032;SDS011;10675;47.976;7.824;2022-09-25T15:20:02;2.07;;;1.87;;
21032;SDS011;10675;47.976;7.824;2022-09-25T15:22:31;2.50;;;1.90;;
21032;SDS011;10675;47.976;7.824;2022-09-25T15:25:03;3.00;;;1.93;;
21032;SDS011;10675;47.976;7.824;2022-09-25T15:27:31;2.57;;;1.97;;
21032;SDS011;10675;47.976;7.824;2022-09-25T15:29:57;2.57;;;1.93;;
21032;SDS011;10675;47.976;7.824;2022-09-25T15:32:29;1.90;;;1.70;;
21032;SDS011;10675;47.976;7.824;2022-09-25T15:37:35;3.47;;;1.83;;
21032;SDS011;10675;47.976;7.824;2022-09-25T15:40:16;3.17;;;2.20;;
21032;SDS011;10675;47.976;7.824;2022-09-25T15:42:52;5.90;;;2.30;;
21032;SDS011;10675;47.976;7.824;2022-09-25T15:47:56;2.67;;;2.20;;
21032;SDS011;10675;47.976;7.824;2022-09-25T15:50:24;3.00;;;1.83;;
21032;SDS011;10675;47.976;7.824;2022-09-25T15:52:52;2.73;;;2.13;;
21032;SDS011;10675;47.976;7.824;2022-09-25T15:55:20;2.27;;;1.93;;
21032;SDS011;10675;47.976;7.824;2022-09-25T15:57:46;2.40;;;2.20;;
21032;SDS011;10675;47.976;7.824;2022-09-25T16:00:17;3.43;;;2.30;;
21032;SDS011;10675;47.976;7.824;2022-09-25T16:06:11;2.00;;;1.70;;
21032;SDS011;10675;47.976;7.824;2022-09-25T16:08:38;1.80;;;1.70;;
21032;SDS011;10675;47.976;7.824;2022-09-25T16:11:25;3.40;;;2.10;;
21032;SDS011;10675;47.976;7.824;2022-09-25T16:14:11;1.90;;;1.80;;
21032;SDS011;10675;47.976;7.824;2022-09-25T16:16:45;1.80;;;1.70;;
21032;SDS011;10675;47.976;7.824;2022-09-25T16:19:24;3.17;;;1.97;;
21032;SDS011;10675;47.976;7.824;2022-09-25T16:21:54;3.83;;;2.07;;
21032;SDS011;10675;47.976;7.824;2022-09-25T16:24:22;2.23;;;2.03;;
21032;SDS011;10675;47.976;7.824;2022-09-25T16:26:54;4.33;;;2.10;;
21032;SDS011;10675;47.976;7.824;2022-09-25T16:29:27;2.87;;;2.30;;
21032;SDS011;10675;47.976;7.824;2022-09-25T16:32:02;4.53;;;3.07;;
21032;SDS011;10675;47.976;7.824;2022-09-25T16:34:35;5.17;;;3.47;;
21032;SDS011;10675;47.976;7.824;2022-09-25T16:37:04;4.07;;;2.57;;
21032;SDS011;10675;47.976;7.824;2022-09-25T16:39:33;3.03;;;2.13;;
21032;SDS011;10675;47.976;7.824;2022-09-25T16:42:22;2.57;;;2.10;;
21032;SDS011;10675;47.976;7.824;2022-09-25T16:44:48;2.27;;;2.07;;
21032;SDS011;10675;47.976;7.824;2022-09-25T16:49:41;2.60;;;2.20;;
21032;SDS011;10675;47.976;7.824;2022-09-25T16:52:09;2.20;;;2.00;;
21032;SDS011;10675;47.976;7.824;2022-09-25T16:54:44;3.23;;;2.20;;
21032;SDS011;10675;47.976;7.824;2022-09-25T16:57:17;4.60;;;1.80;;
21032;SDS011;10675;47.976;7.824;2022-09-25T16:59:43;2.20;;;1.53;;
21032;SDS011;10675;47.976;7.824;2022-09-25T17:02:16;2.30;;;2.10;;
21032;SDS011;10675;47.976;7.824;2022-09-25T17:04:58;4.93;;;4.53;;
21032;SDS011;10675;47.976;7.824;2022-09-25T17:07:25;4.60;;;2.47;;
21032;SDS011;10675;47.976;7.824;2022-09-25T17:09:51;4.00;;;3.70;;
21032;SDS011;10675;47.976;7.824;2022-09-25T17:12:18;3.20;;;2.90;;
21032;SDS011;10675;47.976;7.824;2022-09-25T17:14:45;3.30;;;3.00;;
21032;SDS011;10675;47.976;7.824;2022-09-25T17:17:12;4.57;;;3.23;;
21032;SDS011;10675;47.976;7.824;2022-09-25T17:19:41;4.73;;;3.37;;
21032;SDS011;10675;47.976;7.824;2022-09-25T17:22:07;4.30;;;3.43;;
21032;SDS011;10675;47.976;7.824;2022-09-25T17:24:33;5.97;;;4.03;;
21032;SDS011;10675;47.976;7.824;2022-09-25T17:26:59;3.73;;;3.37;;
21032;SDS011;10675;47.976;7.824;2022-09-25T17:29:26;4.87;;;3.70;;
21032;SDS011;10675;47.976;7.824;2022-09-25T17:31:52;5.23;;;3.37;;
21032;SDS011;10675;47.976;7.824;2022-09-25T17:34:19;4.80;;;3.40;;
21032;SDS011;10675;47.976;7.824;2022-09-25T17:36:49;4.57;;;3.67;;
21032;SDS011;10675;47.976;7.824;2022-09-25T17:39:15;19.10;;;11.33;;
21032;SDS011;10675;47.976;7.824;2022-09-25T17:41:41;35.10;;;18.03;;
21032;SDS011;10675;47.976;7.824;2022-09-25T17:44:11;22.13;;;10.80;;
21032;SDS011;10675;47.976;7.824;2022-09-25T17:46:42;8.47;;;4.70;;